Wetterdaten: aktuell Mittwoch, 17.04.2024 13:00
Datum Zeit Temp. A. Feuchte A. Feuchte K Luftdruck Regen Wind Richtung Richtung Sonnenschein UV Solar Taupunkt Windchill Windben
17.04.2024 13:00 5,2 C 91 % 49 % 1008,8 hPa 0,3 l/m 0,0 km/h (0 Bft) W-NW 289 5 min 0,0 UV-I 139 W/m 3,9 C 5,2 C 0,0 km/h (0 Bft)
17.04.2024 12:55 5,2 C 91 % 49 % 1008,8 hPa 0,0 l/m 0,0 km/h (0 Bft) W-NW 289 5 min 0,0 UV-I 141 W/m 3,9 C 5,2 C 1,6 km/h (1 Bft)
17.04.2024 12:50 5,3 C 91 % 49 % 1008,9 hPa 0,3 l/m 0,2 km/h (0 Bft) W-NW 288 0 min 0,0 UV-I 88 W/m 4,0 C 5,3 C 1,6 km/h (1 Bft)
17.04.2024 12:45 5,5 C 92 % 49 % 1008,9 hPa 0,0 l/m 0,4 km/h (0 Bft) W-NW 288 0 min 0,0 UV-I 93 W/m 4,3 C 5,5 C 3,2 km/h (1 Bft)
17.04.2024 12:40 5,6 C 92 % 49 % 1008,9 hPa 0,3 l/m 1,2 km/h (1 Bft) W-NW 297 5 min 0,0 UV-I 130 W/m 4,4 C 5,6 C 4,8 km/h (1 Bft)
17.04.2024 12:35 5,7 C 92 % 49 % 1008,9 hPa 0,3 l/m 1,6 km/h (1 Bft) W-NW 288 5 min 0,2 UV-I 207 W/m 4,5 C 5,7 C 6,4 km/h (2 Bft)
17.04.2024 12:30 5,7 C 92 % 50 % 1008,8 hPa 0,0 l/m 2,0 km/h (1 Bft) W-NW 284 5 min 0,7 UV-I 322 W/m 4,5 C 5,7 C 8,0 km/h (2 Bft)
17.04.2024 12:25 5,6 C 92 % 50 % 1008,8 hPa 0,0 l/m 1,2 km/h (1 Bft) SW 232 5 min 0,7 UV-I 310 W/m 4,4 C 5,6 C 6,4 km/h (2 Bft)
17.04.2024 12:20 5,6 C 92 % 50 % 1008,8 hPa 0,0 l/m 0,2 km/h (0 Bft) SW 229 5 min 0,3 UV-I 203 W/m 4,4 C 5,6 C 4,8 km/h (1 Bft)
17.04.2024 12:15 5,6 C 92 % 50 % 1008,8 hPa 0,0 l/m 0,0 km/h (0 Bft) W-NW 289 5 min 0,0 UV-I 141 W/m 4,4 C 5,6 C 0,0 km/h (0 Bft)
17.04.2024 12:10 5,7 C 92 % 50 % 1008,8 hPa 0,0 l/m 0,0 km/h (0 Bft) W-NW 295 5 min 0,4 UV-I 210 W/m 4,5 C 5,7 C 0,0 km/h (0 Bft)
17.04.2024 12:05 5,6 C 92 % 50 % 1008,8 hPa 0,0 l/m 0,0 km/h (0 Bft) W 269 5 min 0,6 UV-I 247 W/m 4,4 C 5,6 C 0,0 km/h (0 Bft)
17.04.2024 12:00 5,6 C 92 % 50 % 1008,8 hPa 0,0 l/m 0,0 km/h (0 Bft) W-NW 296 5 min 0,5 UV-I 245 W/m 4,4 C 5,6 C 0,0 km/h (0 Bft)
17.04.2024 11:55 5,6 C 92 % 50 % 1008,8 hPa 0,0 l/m 0,0 km/h (0 Bft) W-SW 257 5 min 0,0 UV-I 187 W/m 4,4 C 5,6 C 1,6 km/h (1 Bft)
17.04.2024 11:50 5,6 C 92 % 50 % 1008,8 hPa 0,0 l/m 0,0 km/h (0 Bft) S-SO 162 5 min 0,0 UV-I 177 W/m 4,4 C 5,6 C 0,0 km/h (0 Bft)
17.04.2024 11:45 5,7 C 92 % 50 % 1008,8 hPa 0,0 l/m 0,9 km/h (0 Bft) W-NW 290 5 min 0,0 UV-I 150 W/m 4,5 C 5,7 C 4,8 km/h (1 Bft)
17.04.2024 11:40 5,8 C 92 % 50 % 1008,7 hPa 0,0 l/m 0,0 km/h (0 Bft) W 261 5 min 0,0 UV-I 136 W/m 4,6 C 5,8 C 1,6 km/h (1 Bft)
17.04.2024 11:35 5,9 C 93 % 50 % 1008,7 hPa 0,0 l/m 0,0 km/h (0 Bft) W-SW 250 5 min 0,0 UV-I 154 W/m 4,9 C 5,9 C 0,0 km/h (0 Bft)
17.04.2024 11:30 5,9 C 93 % 50 % 1008,6 hPa 0,0 l/m 0,6 km/h (0 Bft) W-SW 240 5 min 0,0 UV-I 105 W/m 4,9 C 5,9 C 4,8 km/h (1 Bft)
17.04.2024 11:25 6,0 C 94 % 50 % 1008,7 hPa 0,0 l/m 0,7 km/h (0 Bft) S-SW 203 5 min 0,1 UV-I 188 W/m 5,1 C 6,0 C 4,8 km/h (1 Bft)
17.04.2024 11:20 6,0 C 94 % 50 % 1008,6 hPa 0,0 l/m 1,0 km/h (0 Bft) W 280 5 min 0,6 UV-I 335 W/m 5,1 C 6,0 C 4,8 km/h (1 Bft)
_ Min-Zeit 07:15 17:55 14:50 14:00 - 14:00 - - - - - 07:15 07:15 14:00
Minimum _ 3,1 C 79 % 49 % 997,3 hPa - 0,0 km/h (0 Bft) - - - - - 2,4 C 3,1 C 0,0 km/h (0 Bft)
_ Max-Zeit 17:45 09:45 01:25 12:35 19:10 12:30 - - 14:00 14:45 14:45 17:40 17:45 17:55
Maximum _ 9,3 C 96 % 55 % 1008,9 hPa 1,0 l/m 2,0 km/h
W-NW (1 Bft)
- - 5 min 1,3 UV-I 650 W/m 6,1 C 9,3 C 12,9 km/h
NW (3 Bft)
Durchschnitt _ 5,3 C 92 % 52 % 1004,9 hPa #5,1 l/m 0,3 km/h (0 Bft) W-NW - #3:05 h 0,5 UV-I 122 W/m 4,1 C 5,3 C 2,3 km/h (1 Bft)